createdAt,value
2019-03-05T00:01:47.706Z,3.80
2019-03-05T00:05:53.545Z,3.60
2019-03-05T00:09:58.793Z,3.50
2019-03-05T00:14:05.017Z,3.40
2019-03-05T00:18:10.780Z,3.40
2019-03-05T00:22:16.195Z,3.20
2019-03-05T00:26:27.955Z,3.20
2019-03-05T00:30:40.032Z,3.20
2019-03-05T00:35:09.195Z,3.30
2019-03-05T00:39:53.742Z,3.00
2019-03-05T00:44:34.799Z,3.00
2019-03-05T00:49:21.161Z,2.80
2019-03-05T00:54:01.479Z,2.90
2019-03-05T00:58:35.016Z,2.80
2019-03-05T01:02:52.866Z,2.80
2019-03-05T01:06:58.189Z,2.70
2019-03-05T01:11:03.509Z,2.60
2019-03-05T01:15:10.675Z,2.70
2019-03-05T01:19:16.046Z,2.50
2019-03-05T01:23:21.519Z,2.50
2019-03-05T01:27:26.895Z,2.40
2019-03-05T01:31:53.775Z,2.20
2019-03-05T01:36:07.140Z,2.20
2019-03-05T01:40:29.122Z,2.10
2019-03-05T01:44:34.351Z,2.00
2019-03-05T01:48:40.138Z,1.90
2019-03-05T01:52:45.452Z,1.90
2019-03-05T01:56:50.762Z,1.80
2019-03-05T02:00:56.138Z,1.80
2019-03-05T02:05:01.405Z,1.70
2019-03-05T02:09:08.461Z,1.70
2019-03-05T02:13:13.795Z,1.50
2019-03-05T02:17:19.145Z,1.50
2019-03-05T02:21:24.501Z,1.40
2019-03-05T02:25:51.832Z,1.30
2019-03-05T02:30:23.084Z,1.40
2019-03-05T02:35:06.561Z,1.30
2019-03-05T02:39:34.201Z,1.20
2019-03-05T02:44:12.617Z,1.10
2019-03-05T02:49:16.615Z,1.10
2019-03-05T02:54:11.990Z,0.90
2019-03-05T02:58:15.294Z,1.00
2019-03-05T03:02:42.361Z,0.80
2019-03-05T03:06:47.724Z,0.80
2019-03-05T03:10:53.019Z,0.60
2019-03-05T03:14:58.150Z,0.70
2019-03-05T03:19:03.335Z,0.60
2019-03-05T03:23:08.611Z,0.50
2019-03-05T03:27:13.951Z,0.50
2019-03-05T03:31:19.081Z,0.70
2019-03-05T03:35:24.547Z,0.60
2019-03-05T03:39:29.733Z,0.60
2019-03-05T03:43:35.001Z,0.40
2019-03-05T03:47:40.271Z,0.50
2019-03-05T03:51:45.786Z,0.20
2019-03-05T03:55:51.155Z,0.40
2019-03-05T03:59:56.294Z,0.30
2019-03-05T04:04:01.711Z,0.30
2019-03-05T04:08:10.327Z,0.20
2019-03-05T04:12:13.967Z,0.20
2019-03-05T04:16:19.137Z,0.30
2019-03-05T04:20:33.851Z,0.30
2019-03-05T04:24:39.453Z,0.20
2019-03-05T04:28:44.566Z,0.20
2019-03-05T04:32:49.715Z,0.10
2019-03-05T04:36:54.947Z,0.20
2019-03-05T04:41:00.096Z,0.00
2019-03-05T04:45:17.341Z,0.10
2019-03-05T04:49:47.176Z,0.10
2019-03-05T04:53:52.447Z,0.00
2019-03-05T04:57:57.604Z,0.00
2019-03-05T05:02:02.946Z,0.00
2019-03-05T05:06:08.209Z,0.10
2019-03-05T05:10:13.589Z,0.10
2019-03-05T05:14:18.756Z,0.10
2019-03-05T05:18:23.881Z,0.00
2019-03-05T05:22:29.099Z,0.10
2019-03-05T05:26:34.241Z,0.10
2019-03-05T05:30:40.624Z,0.00
2019-03-05T05:34:45.760Z,0.00
2019-03-05T05:38:51.076Z,-0.10
2019-03-05T05:42:56.324Z,-0.10
2019-03-05T05:47:01.421Z,-0.10
2019-03-05T05:51:06.593Z,-0.20
2019-03-05T05:55:11.977Z,-0.10
2019-03-05T05:59:17.134Z,-0.20
2019-03-05T06:03:22.446Z,-0.20
2019-03-05T06:07:27.700Z,-0.20
2019-03-05T06:11:32.849Z,-0.10
2019-03-05T06:15:41.356Z,-0.10
2019-03-05T06:19:46.476Z,-0.20
2019-03-05T06:23:51.664Z,-0.20
2019-03-05T06:27:56.794Z,-0.10
2019-03-05T06:32:03.126Z,0.00
2019-03-05T06:36:08.319Z,0.10
2019-03-05T06:40:15.849Z,0.00
2019-03-05T06:44:21.102Z,0.00
2019-03-05T06:48:28.337Z,0.10
2019-03-05T06:52:33.610Z,0.10
2019-03-05T06:56:38.791Z,0.10
2019-03-05T07:00:43.990Z,0.20
2019-03-05T07:05:01.763Z,0.20
2019-03-05T07:09:18.178Z,0.30
2019-03-05T07:13:23.922Z,0.50
2019-03-05T07:17:35.346Z,0.60
2019-03-05T07:22:39.180Z,0.70
2019-03-05T07:26:44.633Z,0.90
2019-03-05T07:30:49.885Z,1.00
2019-03-05T07:34:55.014Z,1.10
2019-03-05T07:39:00.170Z,1.20
2019-03-05T07:43:05.442Z,1.40
2019-03-05T07:47:13.083Z,1.40
2019-03-05T07:51:18.180Z,1.50
2019-03-05T07:55:23.752Z,1.70
2019-03-05T07:59:29.474Z,2.00
2019-03-05T08:03:35.099Z,2.30
2019-03-05T08:07:40.590Z,2.50
2019-03-05T08:11:45.767Z,2.70
2019-03-05T08:16:13.189Z,3.10
2019-03-05T08:20:18.668Z,3.50
2019-03-05T08:24:24.084Z,3.90
2019-03-05T08:28:31.031Z,4.20
2019-03-05T08:32:36.661Z,4.60
2019-03-05T08:36:42.231Z,4.90
2019-03-05T08:40:48.081Z,5.30
2019-03-05T08:44:53.631Z,5.60
2019-03-05T08:49:00.570Z,5.90
2019-03-05T08:53:06.089Z,6.30
2019-03-05T08:57:13.428Z,6.70
2019-03-05T09:01:18.631Z,7.10
2019-03-05T09:05:32.307Z,7.50
2019-03-05T09:09:37.999Z,7.90
2019-03-05T09:13:45.706Z,8.30
2019-03-05T09:17:51.631Z,8.50
2019-03-05T09:22:18.081Z,9.00
2019-03-05T09:26:23.718Z,9.60
2019-03-05T09:30:29.331Z,9.80
2019-03-05T09:34:35.083Z,10.40
2019-03-05T09:38:40.006Z,10.40
2019-03-05T09:42:45.093Z,10.40
2019-03-05T09:46:50.082Z,11.30
2019-03-05T09:50:55.017Z,12.90
2019-03-05T09:54:59.998Z,14.30
2019-03-05T09:59:05.757Z,14.20
2019-03-05T10:03:11.193Z,14.80
2019-03-05T10:07:19.291Z,15.20
2019-03-05T10:11:22.780Z,15.60
2019-03-05T10:15:28.619Z,16.30
2019-03-05T10:19:33.556Z,16.50
2019-03-05T10:23:38.568Z,17.40
2019-03-05T10:27:43.577Z,16.50
2019-03-05T10:31:48.502Z,15.00
2019-03-05T10:35:53.897Z,14.80
2019-03-05T10:39:58.983Z,16.00
2019-03-05T10:44:03.950Z,17.10
2019-03-05T10:48:09.123Z,18.10
2019-03-05T10:52:14.293Z,18.50
2019-03-05T10:56:19.671Z,20.30
2019-03-05T11:00:29.868Z,20.40
2019-03-05T11:04:45.259Z,20.80
2019-03-05T11:08:41.340Z,20.40
2019-03-05T11:12:46.935Z,21.10
2019-03-05T11:16:51.934Z,22.80
2019-03-05T11:20:57.083Z,22.80
2019-03-05T11:25:02.283Z,23.70
2019-03-05T11:29:07.189Z,23.60
2019-03-05T11:33:12.195Z,22.90
2019-03-05T11:37:17.096Z,22.90
2019-03-05T11:41:22.017Z,22.60
2019-03-05T11:45:27.862Z,22.30
2019-03-05T11:49:32.754Z,22.10
2019-03-05T11:53:38.391Z,22.70
2019-03-05T11:57:43.249Z,22.00
2019-03-05T12:01:50.910Z,22.00
2019-03-05T12:05:55.801Z,22.40
2019-03-05T12:10:00.717Z,22.30
2019-03-05T12:14:05.721Z,23.40
2019-03-05T12:18:10.900Z,22.50
2019-03-05T12:22:15.829Z,21.40
2019-03-05T12:26:20.734Z,22.60
2019-03-05T12:30:25.821Z,23.50
2019-03-05T12:34:30.866Z,23.10
2019-03-05T12:38:35.767Z,22.70
2019-03-05T12:42:40.617Z,24.60
2019-03-05T12:46:46.055Z,24.60
2019-03-05T12:50:50.967Z,26.70
2019-03-05T12:54:56.379Z,27.20
2019-03-05T12:59:01.529Z,24.50
2019-03-05T13:03:06.611Z,23.20
2019-03-05T13:07:14.215Z,23.40
2019-03-05T13:11:18.097Z,23.30
2019-03-05T13:15:25.282Z,25.30
2019-03-05T13:19:30.181Z,25.50
2019-03-05T13:23:37.131Z,24.90
2019-03-05T13:27:42.149Z,25.10
2019-03-05T13:31:47.286Z,24.40
2019-03-05T13:35:53.213Z,24.30
2019-03-05T13:39:59.123Z,25.60
2019-03-05T13:44:04.354Z,26.20
2019-03-05T13:48:39.170Z,27.00
2019-03-05T13:53:27.156Z,26.20
2019-03-05T13:58:31.735Z,24.10
2019-03-05T14:03:02.855Z,25.00
2019-03-05T14:07:47.422Z,25.90
2019-03-05T14:11:53.241Z,25.30
2019-03-05T14:15:58.595Z,23.20
2019-03-05T14:20:03.751Z,23.80
2019-03-05T14:24:08.730Z,23.00
2019-03-05T14:28:13.821Z,23.60
2019-03-05T14:32:18.748Z,25.90
2019-03-05T14:36:23.746Z,28.50
2019-03-05T14:40:30.741Z,28.40
2019-03-05T14:44:39.899Z,23.90
2019-03-05T14:48:42.878Z,19.80
2019-03-05T14:52:47.885Z,17.50
2019-03-05T14:56:53.746Z,16.80
2019-03-05T15:00:59.252Z,16.30
2019-03-05T15:05:04.245Z,15.90
2019-03-05T15:09:09.221Z,15.40
2019-03-05T15:13:20.082Z,15.10
2019-03-05T15:17:24.442Z,14.90
2019-03-05T15:21:29.471Z,14.80
2019-03-05T15:25:34.353Z,14.50
2019-03-05T15:29:39.401Z,14.30
2019-03-05T15:33:44.437Z,14.10
2019-03-05T15:37:51.506Z,13.90
2019-03-05T15:41:56.507Z,13.70
2019-03-05T15:46:01.485Z,13.40
2019-03-05T15:50:07.228Z,12.90
2019-03-05T15:54:12.131Z,12.60
2019-03-05T15:58:17.285Z,12.40
2019-03-05T16:02:22.527Z,12.40
2019-03-05T16:06:30.121Z,12.30
2019-03-05T16:10:34.778Z,12.20
2019-03-05T16:14:39.990Z,12.20
2019-03-05T16:18:45.411Z,12.20
2019-03-05T16:22:51.157Z,12.00
2019-03-05T16:26:57.936Z,11.40
2019-03-05T16:31:12.532Z,11.00
2019-03-05T16:35:31.880Z,10.60
2019-03-05T16:39:54.337Z,10.30
2019-03-05T16:44:19.856Z,10.10
2019-03-05T16:48:40.850Z,9.90
2019-03-05T16:53:08.590Z,9.50
2019-03-05T16:57:31.581Z,9.10
2019-03-05T17:01:45.974Z,8.70
2019-03-05T17:06:09.770Z,8.20
2019-03-05T17:10:26.670Z,8.00
2019-03-05T17:14:31.585Z,7.60
2019-03-05T17:18:36.639Z,7.30
2019-03-05T17:22:41.703Z,7.10
2019-03-05T17:26:49.123Z,6.80
2019-03-05T17:30:54.318Z,6.90
2019-03-05T17:34:59.609Z,7.00
2019-03-05T17:39:08.545Z,7.00
2019-03-05T17:43:16.006Z,6.80
2019-03-05T17:47:21.207Z,6.60
2019-03-05T17:51:26.380Z,6.60
2019-03-05T17:55:31.703Z,6.30
2019-03-05T17:59:37.440Z,6.00
2019-03-05T18:03:42.619Z,5.80
2019-03-05T18:07:47.984Z,5.70
2019-03-05T18:11:53.326Z,5.60
2019-03-05T18:15:58.640Z,5.50
2019-03-05T18:20:03.908Z,5.40
2019-03-05T18:24:09.703Z,5.40
2019-03-05T18:28:14.948Z,5.30
2019-03-05T18:32:21.002Z,5.20
2019-03-05T18:36:26.785Z,5.10
2019-03-05T18:40:34.798Z,4.90
2019-03-05T18:44:40.485Z,4.70
2019-03-05T18:48:45.662Z,4.70
2019-03-05T18:52:52.961Z,4.60
2019-03-05T18:56:58.040Z,4.50
2019-03-05T19:01:03.640Z,4.50
2019-03-05T19:05:09.408Z,4.40
2019-03-05T19:09:14.830Z,4.50
2019-03-05T19:13:20.138Z,4.50
2019-03-05T19:17:25.322Z,4.60
2019-03-05T19:21:30.474Z,4.70
2019-03-05T19:25:35.668Z,4.90
2019-03-05T19:29:40.668Z,5.00
2019-03-05T19:33:45.769Z,5.10
2019-03-05T19:37:50.813Z,5.30
2019-03-05T19:41:56.446Z,5.30
2019-03-05T19:46:01.605Z,5.40
2019-03-05T19:50:08.226Z,5.50
2019-03-05T19:54:14.040Z,5.60
2019-03-05T19:58:19.697Z,5.20
2019-03-05T20:02:25.102Z,5.10
2019-03-05T20:06:30.195Z,5.00
2019-03-05T20:10:35.323Z,4.80
2019-03-05T20:14:40.316Z,4.50
2019-03-05T20:18:45.367Z,4.40
2019-03-05T20:22:50.842Z,4.50
2019-03-05T20:26:55.915Z,4.50
2019-03-05T20:31:01.360Z,4.40
2019-03-05T20:35:06.977Z,4.30
2019-03-05T20:39:12.618Z,4.10
2019-03-05T20:43:17.871Z,4.00
2019-03-05T20:47:23.279Z,3.90
2019-03-05T20:51:29.000Z,3.90
2019-03-05T20:55:35.677Z,3.80
2019-03-05T20:59:41.129Z,3.70
2019-03-05T21:03:47.539Z,3.70
2019-03-05T21:07:53.835Z,3.70
2019-03-05T21:12:00.266Z,3.70
2019-03-05T21:16:05.844Z,3.60
2019-03-05T21:20:12.128Z,3.50
2019-03-05T21:24:17.693Z,3.50
2019-03-05T21:28:23.014Z,3.40
2019-03-05T21:32:28.334Z,3.40
2019-03-05T21:36:35.088Z,3.30
2019-03-05T21:40:40.782Z,3.20
2019-03-05T21:44:46.627Z,3.10
2019-03-05T21:48:55.755Z,3.00
2019-03-05T21:53:04.102Z,2.90
2019-03-05T21:57:12.129Z,2.80
2019-03-05T22:01:20.333Z,2.70
2019-03-05T22:05:27.436Z,2.50
2019-03-05T22:09:33.298Z,2.40
2019-03-05T22:13:40.691Z,2.40
2019-03-05T22:17:46.019Z,2.20
2019-03-05T22:21:51.317Z,2.20
2019-03-05T22:25:57.657Z,2.10
2019-03-05T22:30:02.957Z,2.00
2019-03-05T22:34:08.338Z,1.80
2019-03-05T22:38:13.721Z,1.80
2019-03-05T22:42:18.874Z,1.70
2019-03-05T22:46:26.342Z,1.70
2019-03-05T22:50:31.897Z,1.60
2019-03-05T22:54:37.362Z,1.50
2019-03-05T22:58:42.598Z,1.50
2019-03-05T23:02:47.868Z,1.40
2019-03-05T23:06:53.359Z,1.30
2019-03-05T23:10:58.740Z,1.20
2019-03-05T23:15:04.309Z,1.20
2019-03-05T23:19:10.082Z,1.20
2019-03-05T23:23:15.465Z,1.00
2019-03-05T23:27:21.304Z,1.00
2019-03-05T23:31:27.099Z,1.00
2019-03-05T23:35:33.993Z,1.00
2019-03-05T23:39:39.656Z,0.90
2019-03-05T23:43:44.949Z,1.00
2019-03-05T23:47:50.234Z,0.90
2019-03-05T23:51:55.743Z,0.90
2019-03-05T23:56:02.139Z,0.90
